createdAt,value
2018-11-11T00:00:04.726Z,9.90
2018-11-11T00:02:36.366Z,9.70
2018-11-11T00:05:08.840Z,9.80
2018-11-11T00:07:40.236Z,10.00
2018-11-11T00:10:11.256Z,10.00
2018-11-11T00:12:42.313Z,9.90
2018-11-11T00:15:14.931Z,9.90
2018-11-11T00:17:47.200Z,9.80
2018-11-11T00:20:18.902Z,9.90
2018-11-11T00:22:50.056Z,10.00
2018-11-11T00:25:21.124Z,9.70
2018-11-11T00:27:52.208Z,9.60
2018-11-11T00:30:23.181Z,9.70
2018-11-11T00:32:54.359Z,9.70
2018-11-11T00:35:25.652Z,9.80
2018-11-11T00:37:56.688Z,9.70
2018-11-11T00:40:27.769Z,9.80
2018-11-11T00:42:59.044Z,9.80
2018-11-11T00:45:30.056Z,9.70
2018-11-11T00:48:00.997Z,9.70
2018-11-11T00:50:32.034Z,9.80
2018-11-11T00:53:03.094Z,9.80
2018-11-11T00:55:39.251Z,9.80
2018-11-11T00:58:10.409Z,9.80
2018-11-11T01:00:41.472Z,9.70
2018-11-11T01:03:12.533Z,9.60
2018-11-11T01:05:43.671Z,9.80
2018-11-11T01:08:14.828Z,9.80
2018-11-11T01:10:45.870Z,9.90
2018-11-11T01:13:16.933Z,9.80
2018-11-11T01:15:47.993Z,9.60
2018-11-11T01:18:19.045Z,9.50
2018-11-11T01:20:53.038Z,9.50
2018-11-11T01:23:24.096Z,9.50
2018-11-11T01:25:55.165Z,9.30
2018-11-11T01:28:26.167Z,9.30
2018-11-11T01:30:57.165Z,9.20
2018-11-11T01:33:28.332Z,9.20
2018-11-11T01:35:59.395Z,9.40
2018-11-11T01:38:30.462Z,9.30
2018-11-11T01:41:01.517Z,9.20
2018-11-11T01:43:32.613Z,9.10
2018-11-11T01:46:03.652Z,9.20
2018-11-11T01:48:34.845Z,9.20
2018-11-11T01:51:06.143Z,9.20
2018-11-11T01:53:37.275Z,9.10
2018-11-11T01:56:08.573Z,9.10
2018-11-11T01:58:40.297Z,8.90
2018-11-11T02:01:11.374Z,8.90
2018-11-11T02:03:42.436Z,9.20
2018-11-11T02:06:13.515Z,9.50
2018-11-11T02:08:44.513Z,8.90
2018-11-11T02:11:15.468Z,8.50
2018-11-11T02:13:46.596Z,8.60
2018-11-11T02:16:17.648Z,8.70
2018-11-11T02:18:48.972Z,9.00
2018-11-11T02:21:20.074Z,8.80
2018-11-11T02:23:51.117Z,8.50
2018-11-11T02:26:22.115Z,8.40
2018-11-11T02:28:53.392Z,8.70
2018-11-11T02:31:24.420Z,8.80
2018-11-11T02:33:55.463Z,8.80
2018-11-11T02:36:26.363Z,8.80
2018-11-11T02:38:57.443Z,8.70
2018-11-11T02:41:28.392Z,8.80
2018-11-11T02:43:59.432Z,9.10
2018-11-11T02:46:30.375Z,8.90
2018-11-11T02:49:01.373Z,8.50
2018-11-11T02:51:32.292Z,8.70
2018-11-11T02:54:03.351Z,9.50
2018-11-11T02:56:34.303Z,9.30
2018-11-11T02:59:05.380Z,9.00
2018-11-11T03:01:36.331Z,8.80
2018-11-11T03:04:07.422Z,8.80
2018-11-11T03:06:38.433Z,8.80
2018-11-11T03:09:12.365Z,8.80
2018-11-11T03:11:43.338Z,8.70
2018-11-11T03:14:14.364Z,8.90
2018-11-11T03:16:45.313Z,9.40
2018-11-11T03:19:16.357Z,10.20
2018-11-11T03:21:47.372Z,10.80
2018-11-11T03:24:18.865Z,11.20
2018-11-11T03:26:49.840Z,11.50
2018-11-11T03:29:20.808Z,11.60
2018-11-11T03:31:51.993Z,11.90
2018-11-11T03:34:23.145Z,11.90
2018-11-11T03:36:54.222Z,12.10
2018-11-11T03:39:25.260Z,11.20
2018-11-11T03:41:56.275Z,10.20
2018-11-11T03:44:27.247Z,10.20
2018-11-11T03:46:58.312Z,10.20
2018-11-11T03:49:29.309Z,10.20
2018-11-11T03:52:00.372Z,10.80
2018-11-11T03:54:31.388Z,11.10
2018-11-11T03:57:02.585Z,10.80
2018-11-11T03:59:33.534Z,10.30
2018-11-11T04:02:04.413Z,10.10
2018-11-11T04:04:35.433Z,10.40
2018-11-11T04:07:06.344Z,10.50
2018-11-11T04:09:37.255Z,9.70
2018-11-11T04:12:08.183Z,9.00
2018-11-11T04:14:39.158Z,8.70
2018-11-11T04:17:10.072Z,8.60
2018-11-11T04:19:40.991Z,8.60
2018-11-11T04:22:21.164Z,8.70
2018-11-11T04:24:53.282Z,8.70
2018-11-11T04:27:24.224Z,8.30
2018-11-11T04:29:55.221Z,8.00
2018-11-11T04:32:26.108Z,8.00
2018-11-11T04:34:57.004Z,7.90
2018-11-11T04:37:27.895Z,7.80
2018-11-11T04:39:58.927Z,7.90
2018-11-11T04:42:29.811Z,8.00
2018-11-11T04:45:00.755Z,8.30
2018-11-11T04:47:31.648Z,8.30
2018-11-11T04:50:02.576Z,8.30
2018-11-11T04:52:33.472Z,8.30
2018-11-11T04:55:04.425Z,8.20
2018-11-11T04:57:35.518Z,8.10
2018-11-11T05:00:08.492Z,7.90
2018-11-11T05:02:39.675Z,7.70
2018-11-11T05:05:11.846Z,7.70
2018-11-11T05:07:42.915Z,7.70
2018-11-11T05:10:14.393Z,7.50
2018-11-11T05:12:45.392Z,7.50
2018-11-11T05:15:16.332Z,7.60
2018-11-11T05:17:47.231Z,7.60
2018-11-11T05:20:18.256Z,7.60
2018-11-11T05:22:49.172Z,7.70
2018-11-11T05:25:20.036Z,7.80
2018-11-11T05:27:50.859Z,7.90
2018-11-11T05:30:21.764Z,7.80
2018-11-11T05:32:52.634Z,7.70
2018-11-11T05:35:23.505Z,7.60
2018-11-11T05:37:54.455Z,7.50
2018-11-11T05:40:25.552Z,7.40
2018-11-11T05:42:56.532Z,7.20
2018-11-11T05:45:27.473Z,7.20
2018-11-11T05:47:58.392Z,7.10
2018-11-11T05:50:29.260Z,7.00
2018-11-11T05:53:00.155Z,6.80
2018-11-11T05:55:31.272Z,6.80
2018-11-11T05:58:02.146Z,6.80
2018-11-11T06:00:33.212Z,6.80
2018-11-11T06:03:04.153Z,6.90
2018-11-11T06:05:35.092Z,7.10
2018-11-11T06:08:06.065Z,7.10
2018-11-11T06:10:36.948Z,7.30
2018-11-11T06:13:07.832Z,7.30
2018-11-11T06:15:38.723Z,7.20
2018-11-11T06:18:09.571Z,7.30
2018-11-11T06:20:40.493Z,7.30
2018-11-11T06:23:11.307Z,7.30
2018-11-11T06:25:42.232Z,7.30
2018-11-11T06:28:13.212Z,7.30
2018-11-11T06:30:44.240Z,7.10
2018-11-11T06:33:15.092Z,7.20
2018-11-11T06:35:46.023Z,7.30
2018-11-11T06:38:16.915Z,7.30
2018-11-11T06:40:47.820Z,7.40
2018-11-11T06:43:18.672Z,7.10
2018-11-11T06:45:49.598Z,6.90
2018-11-11T06:48:20.992Z,7.00
2018-11-11T06:50:51.936Z,7.10
2018-11-11T06:53:22.833Z,7.00
2018-11-11T06:55:53.745Z,6.80
2018-11-11T06:58:24.605Z,7.00
2018-11-11T07:00:55.616Z,7.20
2018-11-11T07:03:55.854Z,7.20
2018-11-11T07:06:27.352Z,7.20
2018-11-11T07:08:58.286Z,7.40
2018-11-11T07:11:29.292Z,7.40
2018-11-11T07:14:00.269Z,7.40
2018-11-11T07:16:31.313Z,7.60
2018-11-11T07:19:02.236Z,7.40
2018-11-11T07:21:33.304Z,7.50
2018-11-11T07:24:06.460Z,7.30
2018-11-11T07:26:47.513Z,7.20
2018-11-11T07:29:19.558Z,7.20
2018-11-11T07:31:52.807Z,7.40
2018-11-11T07:34:42.612Z,7.40
2018-11-11T07:37:19.233Z,7.40
2018-11-11T07:39:50.235Z,7.20
2018-11-11T07:42:27.561Z,7.30
2018-11-11T07:45:06.288Z,7.40
2018-11-11T07:47:44.518Z,7.60
2018-11-11T07:50:22.245Z,7.60
2018-11-11T07:52:53.322Z,7.60
2018-11-11T07:55:24.462Z,7.50
2018-11-11T07:57:55.510Z,7.60
2018-11-11T08:00:26.473Z,7.60
2018-11-11T08:02:57.408Z,7.60
2018-11-11T08:05:28.311Z,7.70
2018-11-11T08:07:59.253Z,7.90
2018-11-11T08:10:46.693Z,7.90
2018-11-11T08:13:17.612Z,8.00
2018-11-11T08:15:48.625Z,8.00
2018-11-11T08:18:19.531Z,8.00
2018-11-11T08:20:50.418Z,8.10
2018-11-11T08:23:21.339Z,8.30
2018-11-11T08:25:52.382Z,8.20
2018-11-11T08:28:23.444Z,8.10
2018-11-11T08:30:55.450Z,8.00
2018-11-11T08:33:26.499Z,8.10
2018-11-11T08:35:57.396Z,8.20
2018-11-11T08:38:28.363Z,8.20
2018-11-11T08:40:59.391Z,8.20
2018-11-11T08:43:30.326Z,8.30
2018-11-11T08:46:01.292Z,8.40
2018-11-11T08:48:32.587Z,8.30
2018-11-11T08:51:03.472Z,8.50
2018-11-11T08:53:34.807Z,8.60
2018-11-11T08:56:05.888Z,8.60
2018-11-11T08:58:36.845Z,8.80
2018-11-11T09:01:07.850Z,8.90
2018-11-11T09:03:38.792Z,9.10
2018-11-11T09:06:09.764Z,9.20
2018-11-11T09:08:40.634Z,9.30
2018-11-11T09:11:11.625Z,9.40
2018-11-11T09:13:42.502Z,9.30
2018-11-11T09:16:13.774Z,9.40
2018-11-11T09:18:44.733Z,9.40
2018-11-11T09:21:15.718Z,9.40
2018-11-11T09:23:46.918Z,9.30
2018-11-11T09:26:17.834Z,9.30
2018-11-11T09:28:48.784Z,9.40
2018-11-11T09:31:19.713Z,9.50
2018-11-11T09:33:50.636Z,9.60
2018-11-11T09:36:21.606Z,9.50
2018-11-11T09:38:52.522Z,9.70
2018-11-11T09:41:23.492Z,9.80
2018-11-11T09:43:54.418Z,9.80
2018-11-11T09:46:26.480Z,9.90
2018-11-11T09:48:59.826Z,9.80
2018-11-11T09:54:17.267Z,9.60
2018-11-11T09:56:58.808Z,9.60
2018-11-11T09:59:36.425Z,9.60
2018-11-11T10:02:10.644Z,9.50
2018-11-11T10:05:07.823Z,9.40
2018-11-11T10:08:05.717Z,9.30
2018-11-11T10:10:45.292Z,9.40
2018-11-11T10:26:43.605Z,9.40
2018-11-11T10:29:23.204Z,9.30
2018-11-11T10:32:01.276Z,9.30
2018-11-11T10:34:43.652Z,9.30
2018-11-11T10:37:27.690Z,9.30
2018-11-11T10:40:08.551Z,9.30
2018-11-11T10:42:57.832Z,9.40
2018-11-11T10:45:40.199Z,9.50
2018-11-11T10:48:18.401Z,9.40
2018-11-11T10:50:57.723Z,9.50
2018-11-11T10:53:34.934Z,9.50
2018-11-11T10:56:06.063Z,9.50
2018-11-11T10:58:38.121Z,9.50
2018-11-11T11:01:13.559Z,9.50
2018-11-11T11:03:49.011Z,9.50
2018-11-11T11:07:33.801Z,9.70
2018-11-11T11:10:10.828Z,9.70
2018-11-11T11:12:43.227Z,9.70
2018-11-11T11:15:17.808Z,9.60
2018-11-11T11:17:56.583Z,9.60
2018-11-11T11:20:28.945Z,9.60
2018-11-11T11:23:02.379Z,9.80
2018-11-11T11:25:36.829Z,9.90
2018-11-11T11:28:08.872Z,9.90
2018-11-11T11:30:44.539Z,10.00
2018-11-11T11:33:18.336Z,10.10
2018-11-11T11:35:50.267Z,10.10
2018-11-11T11:38:23.720Z,10.00
2018-11-11T11:40:55.586Z,10.00
2018-11-11T11:43:27.305Z,10.00
2018-11-11T11:46:00.574Z,10.00
2018-11-11T11:48:31.840Z,10.10
2018-11-11T11:51:21.498Z,10.20
2018-11-11T11:53:56.288Z,10.20
2018-11-11T11:56:40.004Z,10.10
2018-11-11T11:59:19.347Z,10.10
2018-11-11T12:01:51.468Z,10.30
2018-11-11T12:04:24.338Z,10.40
2018-11-11T12:07:07.041Z,10.50
2018-11-11T12:09:44.373Z,10.50
2018-11-11T12:12:17.313Z,10.60
2018-11-11T12:14:56.310Z,10.70
2018-11-11T12:17:30.819Z,10.70
2018-11-11T12:20:06.221Z,10.70
2018-11-11T12:22:47.360Z,11.00
2018-11-11T12:25:28.861Z,11.10
2018-11-11T12:28:06.331Z,11.20
2018-11-11T12:30:43.309Z,11.30
2018-11-11T12:33:29.868Z,11.50
2018-11-11T12:36:04.330Z,11.60
2018-11-11T12:38:35.814Z,11.70
2018-11-11T12:41:09.004Z,12.10
2018-11-11T12:43:42.093Z,12.10
2018-11-11T12:46:13.694Z,12.10
2018-11-11T12:48:45.062Z,12.40
2018-11-11T12:51:16.228Z,12.30
2018-11-11T12:54:07.580Z,12.40
2018-11-11T12:56:39.832Z,12.30
2018-11-11T12:59:11.344Z,12.30
2018-11-11T13:01:48.949Z,12.00
2018-11-11T13:04:25.533Z,12.00
2018-11-11T13:06:59.180Z,12.50
2018-11-11T13:09:31.662Z,12.50
2018-11-11T13:12:11.112Z,12.40
2018-11-11T13:14:47.960Z,12.30
2018-11-11T13:17:20.934Z,12.20
2018-11-11T13:19:52.010Z,12.50
2018-11-11T13:22:24.821Z,12.40
2018-11-11T13:25:03.879Z,12.10
2018-11-11T13:27:37.525Z,11.90
2018-11-11T13:33:06.184Z,12.30
2018-11-11T13:35:52.753Z,12.80
2018-11-11T13:38:29.617Z,12.60
2018-11-11T13:41:05.168Z,13.20
2018-11-11T13:43:41.616Z,12.80
2018-11-11T13:46:12.618Z,12.60
2018-11-11T13:48:43.654Z,12.40
2018-11-11T13:51:14.813Z,12.30
2018-11-11T13:53:45.824Z,12.20
2018-11-11T13:56:16.972Z,12.70
2018-11-11T13:58:48.021Z,12.50
2018-11-11T14:01:19.132Z,12.60
2018-11-11T14:03:50.173Z,12.70
2018-11-11T14:06:21.325Z,12.70
2018-11-11T14:08:52.294Z,13.00
2018-11-11T14:11:23.314Z,13.00
2018-11-11T14:13:54.532Z,12.30
2018-11-11T14:16:25.589Z,12.00
2018-11-11T14:18:56.803Z,12.30
2018-11-11T14:21:27.611Z,12.40
2018-11-11T14:23:58.494Z,12.10
2018-11-11T14:26:29.579Z,12.40
2018-11-11T14:29:00.589Z,12.40
2018-11-11T14:31:31.592Z,12.10
2018-11-11T14:34:02.575Z,11.90
2018-11-11T14:36:33.536Z,12.00
2018-11-11T14:39:04.709Z,12.10
2018-11-11T14:41:35.657Z,12.40
2018-11-11T14:44:06.943Z,12.30
2018-11-11T14:46:38.198Z,12.40
2018-11-11T14:49:10.000Z,12.80
2018-11-11T14:51:41.003Z,12.30
2018-11-11T14:54:11.937Z,12.20
2018-11-11T14:56:42.926Z,12.10
2018-11-11T14:59:13.772Z,12.00
2018-11-11T15:01:44.717Z,11.70
2018-11-11T15:04:15.631Z,11.70
2018-11-11T15:06:46.773Z,11.80
2018-11-11T15:09:17.981Z,11.70
2018-11-11T15:11:49.069Z,12.00
2018-11-11T15:14:20.088Z,11.80
2018-11-11T15:16:51.173Z,11.50
2018-11-11T15:19:22.346Z,11.50
2018-11-11T15:21:53.376Z,11.40
2018-11-11T15:24:24.436Z,11.60
2018-11-11T15:26:55.659Z,11.70
2018-11-11T15:29:26.675Z,11.80
2018-11-11T15:31:57.808Z,12.00
2018-11-11T15:34:28.864Z,11.80
2018-11-11T15:36:59.953Z,11.70
2018-11-11T15:39:32.990Z,11.70
2018-11-11T15:42:04.033Z,11.70
2018-11-11T15:44:35.013Z,11.80
2018-11-11T15:47:06.103Z,11.80
2018-11-11T15:49:37.179Z,11.40
2018-11-11T15:52:08.277Z,11.20
2018-11-11T15:54:39.252Z,11.00
2018-11-11T15:57:10.334Z,11.10
2018-11-11T15:59:41.232Z,11.00
2018-11-11T16:02:12.406Z,11.10
2018-11-11T16:04:43.418Z,11.10
2018-11-11T16:07:14.431Z,10.90
2018-11-11T16:09:45.398Z,10.90
2018-11-11T16:12:16.480Z,11.00
2018-11-11T16:14:47.360Z,11.10
2018-11-11T16:17:18.273Z,10.80
2018-11-11T16:19:49.265Z,10.80
2018-11-11T16:22:20.880Z,10.70
2018-11-11T16:24:51.800Z,10.70
2018-11-11T16:27:22.773Z,11.00
2018-11-11T16:29:54.593Z,10.90
2018-11-11T16:32:25.724Z,10.90
2018-11-11T16:34:56.702Z,10.60
2018-11-11T16:37:27.683Z,10.30
2018-11-11T16:39:58.613Z,10.10
2018-11-11T16:42:30.224Z,10.00
2018-11-11T16:45:01.268Z,10.10
2018-11-11T16:47:32.393Z,10.20
2018-11-11T16:50:04.027Z,10.20
2018-11-11T16:52:35.704Z,10.10
2018-11-11T16:55:09.198Z,10.00
2018-11-11T16:57:41.449Z,9.80
2018-11-11T17:00:19.297Z,9.70
2018-11-11T17:02:51.720Z,9.60
2018-11-11T17:05:25.393Z,9.50
2018-11-11T17:07:58.301Z,9.50
2018-11-11T17:10:30.953Z,9.50
2018-11-11T17:13:03.847Z,9.40
2018-11-11T17:15:35.683Z,9.50
2018-11-11T17:18:07.200Z,10.00
2018-11-11T17:20:38.335Z,10.10
2018-11-11T17:23:10.460Z,9.90
2018-11-11T17:25:42.446Z,9.70
2018-11-11T17:28:13.601Z,9.60
2018-11-11T17:30:45.406Z,9.40
2018-11-11T17:33:17.365Z,9.30
2018-11-11T17:35:48.904Z,9.20
2018-11-11T17:38:20.285Z,9.20
2018-11-11T17:40:51.781Z,9.20
2018-11-11T17:43:25.707Z,9.20
2018-11-11T17:45:57.830Z,9.30
2018-11-11T17:48:29.063Z,9.30
2018-11-11T17:51:00.327Z,9.30
2018-11-11T17:53:31.372Z,9.40
2018-11-11T17:56:02.613Z,9.30
2018-11-11T17:58:33.776Z,9.20
2018-11-11T18:01:05.190Z,9.20
2018-11-11T18:03:36.240Z,9.10
2018-11-11T18:06:09.031Z,9.10
2018-11-11T18:08:40.192Z,9.10
2018-11-11T18:11:12.193Z,9.00
2018-11-11T18:13:43.588Z,9.00
2018-11-11T18:16:14.873Z,9.00
2018-11-11T18:18:46.614Z,9.00
2018-11-11T18:21:18.493Z,9.10
2018-11-11T18:23:49.493Z,9.00
2018-11-11T18:26:20.700Z,9.10
2018-11-11T18:28:53.161Z,8.90
2018-11-11T18:31:26.009Z,8.90
2018-11-11T18:33:57.836Z,8.90
2018-11-11T18:36:29.853Z,8.80
2018-11-11T18:39:01.173Z,8.80
2018-11-11T18:41:32.579Z,8.90
2018-11-11T18:44:04.260Z,8.90
2018-11-11T18:46:37.059Z,8.80
2018-11-11T18:49:08.726Z,8.70
2018-11-11T18:51:41.472Z,8.70
2018-11-11T18:54:14.677Z,8.80
2018-11-11T18:56:46.223Z,8.90
2018-11-11T18:59:18.164Z,8.90
2018-11-11T19:01:50.049Z,9.00
2018-11-11T19:04:21.467Z,9.20
2018-11-11T19:06:53.312Z,9.30
2018-11-11T19:09:25.839Z,9.20
2018-11-11T19:11:58.112Z,9.20
2018-11-11T19:14:31.152Z,9.40
2018-11-11T19:17:03.720Z,9.40
2018-11-11T19:19:35.272Z,9.30
2018-11-11T19:22:06.860Z,9.30
2018-11-11T19:24:39.340Z,9.00
2018-11-11T19:27:12.705Z,8.30
2018-11-11T19:29:44.160Z,8.10
2018-11-11T19:32:16.535Z,8.40
2018-11-11T19:34:49.905Z,8.50
2018-11-11T19:37:21.355Z,8.60
2018-11-11T19:39:53.235Z,8.70
2018-11-11T19:42:30.425Z,8.90
2018-11-11T19:45:26.653Z,9.10
2018-11-11T19:48:01.436Z,9.00
2018-11-11T19:50:50.705Z,8.90
2018-11-11T19:53:26.837Z,8.80
2018-11-11T19:56:04.299Z,8.90
2018-11-11T19:58:36.373Z,8.70
2018-11-11T20:01:08.324Z,8.70
2018-11-11T20:03:41.511Z,8.70
2018-11-11T20:06:14.418Z,8.80
2018-11-11T20:08:46.212Z,8.80
2018-11-11T20:11:18.590Z,8.70
2018-11-11T20:13:50.757Z,8.50
2018-11-11T20:16:22.953Z,8.50
2018-11-11T20:19:01.158Z,8.50
2018-11-11T20:21:36.854Z,8.50
2018-11-11T20:24:08.801Z,8.50
2018-11-11T20:26:40.216Z,8.30
2018-11-11T20:29:11.664Z,8.60
2018-11-11T20:31:43.844Z,8.60
2018-11-11T20:34:16.975Z,8.60
2018-11-11T20:36:48.316Z,8.60
2018-11-11T20:39:22.705Z,8.60
2018-11-11T20:41:53.904Z,8.60
2018-11-11T20:44:25.054Z,8.60
2018-11-11T20:46:56.379Z,8.50
2018-11-11T20:49:27.789Z,8.50
2018-11-11T20:51:58.901Z,8.50
2018-11-11T20:54:39.845Z,8.30
2018-11-11T20:57:11.005Z,8.30
2018-11-11T20:59:43.295Z,8.30
2018-11-11T21:02:15.454Z,8.20
2018-11-11T21:04:46.588Z,8.30
2018-11-11T21:07:17.730Z,8.20
2018-11-11T21:09:48.981Z,8.20
2018-11-11T21:12:20.272Z,8.20
2018-11-11T21:14:51.399Z,8.20
2018-11-11T21:17:22.553Z,8.20
2018-11-11T21:19:54.102Z,8.20
2018-11-11T21:22:25.332Z,8.20
2018-11-11T21:24:56.493Z,8.30
2018-11-11T21:27:27.565Z,8.50
2018-11-11T21:29:58.737Z,8.50
2018-11-11T21:32:29.788Z,8.40
2018-11-11T21:35:01.201Z,8.20
2018-11-11T21:37:32.464Z,8.00
2018-11-11T21:40:03.792Z,7.90
2018-11-11T21:42:34.793Z,8.20
2018-11-11T21:45:06.609Z,8.30
2018-11-11T21:47:37.615Z,8.20
2018-11-11T21:50:11.788Z,8.10
2018-11-11T21:52:44.012Z,7.80
2018-11-11T21:55:15.117Z,7.70
2018-11-11T21:57:46.205Z,7.70
2018-11-11T22:00:17.345Z,7.60
2018-11-11T22:02:48.430Z,7.60
2018-11-11T22:05:19.557Z,7.60
2018-11-11T22:07:50.645Z,7.70
2018-11-11T22:10:21.764Z,7.60
2018-11-11T22:12:52.809Z,7.70
2018-11-11T22:15:23.773Z,7.80
2018-11-11T22:17:54.722Z,7.80
2018-11-11T22:20:25.751Z,7.90
2018-11-11T22:22:56.637Z,8.40
2018-11-11T22:25:27.629Z,8.50
2018-11-11T22:27:58.518Z,8.40
2018-11-11T22:30:29.904Z,8.20
2018-11-11T22:33:00.887Z,8.10
2018-11-11T22:35:31.872Z,7.90
2018-11-11T22:38:03.128Z,7.70
2018-11-11T22:40:34.235Z,7.60
2018-11-11T22:43:05.192Z,7.50
2018-11-11T22:45:36.236Z,7.50
2018-11-11T22:48:08.352Z,7.60
2018-11-11T22:50:39.423Z,7.60
2018-11-11T22:53:10.345Z,7.80
2018-11-11T22:55:41.478Z,8.00
2018-11-11T22:58:12.435Z,7.90
2018-11-11T23:00:48.855Z,7.80
2018-11-11T23:03:20.272Z,7.70
2018-11-11T23:05:51.273Z,7.60
2018-11-11T23:08:22.195Z,7.50
2018-11-11T23:10:53.181Z,7.50
2018-11-11T23:13:24.152Z,7.60
2018-11-11T23:15:55.180Z,7.70
2018-11-11T23:18:26.104Z,7.70
2018-11-11T23:20:57.019Z,7.80
2018-11-11T23:23:27.869Z,7.90
2018-11-11T23:25:58.790Z,7.80
2018-11-11T23:28:29.838Z,7.90
2018-11-11T23:31:00.812Z,8.10
2018-11-11T23:33:31.812Z,8.00
2018-11-11T23:36:02.738Z,8.10
2018-11-11T23:38:33.649Z,8.00
2018-11-11T23:41:04.585Z,7.90
2018-11-11T23:43:35.484Z,7.90
2018-11-11T23:46:06.665Z,7.80
2018-11-11T23:48:37.807Z,7.90
2018-11-11T23:51:08.677Z,7.80
2018-11-11T23:53:39.612Z,7.60
2018-11-11T23:56:10.489Z,7.40
2018-11-11T23:58:41.344Z,7.40
